• Join FlightAware (Why Join?)
  • Login
  • US Flag 
05:45PM EDT


 

Airport Tracker/Info


-or-


 

Live Flight TrackerFlight Track Log ✈ WIG1064 ✈ 12-Jun-2013 ✈ KMHT - KBTV

Flight Track Log - Related Links

Times and Time Zones

All times are in EDT time to prevent confusion due to time zone crossing. See the WIG1064 flight status page for this flight to view local times or setup timezone preferences in your user account.

Time Position Orientation Groundspeed Altitude Reporting Facility
EDT Latitude Longitude Course Direction KTS MPH feet Rate Location/Type
07:30AM 42.9333 -71.4500 236° Southwest 119 137 1,100  Level KA90
07:31AM 42.9167 -71.4833 236° Southwest 110 127 2,700 1,560 Climbing KA90
07:32AM 42.9500 -71.5000 340° North 104 120 4,500 1,320 Climbing KA90
07:33AM 42.9667 -71.5333 304° West 149 171 5,400 960 Climbing KA90
07:34AM 43.0000 -71.5667 324° Northwest 155 178 6,400 780 Climbing KA90
07:35AM 43.0500 -71.6167 324° Northwest 168 193 7,100 780 Climbing KA90
07:36AM 43.0750 -71.6556 311° West 169 194 8,100 480 Climbing Boston Center
07:37AM 43.1192 -71.7033 322° Northwest 190 219 8,100  Level Boston Center
07:38AM 43.1528 -71.7400 321° Northwest 190 219 8,100 -60 Level Boston Center
07:39AM 43.2031 -71.7992 319° Northwest 195 224 8,000  Descending Boston Center
07:40AM 43.2514 -71.8642 316° Northwest 202 232 8,100  Climbing Boston Center
07:41AM 43.2911 -71.9153 317° Northwest 197 227 8,000 -60 Descending Boston Center
07:42AM 43.3331 -71.9692 317° Northwest 197 227 8,000  Level Boston Center
07:43AM 43.3644 -72.0089 317° Northwest 197 227 8,100 60 Climbing Boston Center
07:44AM 43.4106 -72.0658 318° Northwest 197 227 8,200  Climbing Boston Center
07:45AM 43.4525 -72.1142 320° Northwest 202 232 8,200  Level Boston Center
07:46AM 43.4942 -72.1625 320° Northwest 202 232 8,200  Level Boston Center
07:47AM 43.5339 -72.2139 317° Northwest 197 227 8,200  Level Boston Center
07:48AM 43.5756 -72.2625 320° Northwest 197 227 8,200  Level Boston Center
07:49AM 43.6175 -72.3053 324° Northwest 192 221 8,200  Level Boston Center
07:50AM 43.6569 -72.3483 322° Northwest 186 214 8,200  Level Boston Center
07:52AM 43.6967 -72.3969 319° Northwest 186 214 8,200  Level Boston Center
07:53AM 43.7444 -72.4486 322° Northwest 186 214 8,200  Level Boston Center
07:54AM 43.7819 -72.4919 320° Northwest 186 214 8,200 -60 Level Boston Center
07:55AM 43.8217 -72.5350 322° Northwest 186 214 8,100 -60 Descending Boston Center
07:56AM 43.8633 -72.5725 327° Northwest 186 214 8,100 -60 Level Boston Center
07:57AM 43.9008 -72.6244 315° West 186 214 8,000 -60 Descending Boston Center
07:58AM 43.9506 -72.6736 325° Northwest 186 214 8,000  Level Boston Center
07:59AM 43.9986 -72.7028 336° Northwest 186 214 8,000 -60 Level Boston Center
08:00AM 44.0358 -72.7492 318° Northwest 180 207 7,900  Descending Boston Center
08:01AM 44.0689 -72.8186 304° West 185 213 8,000  Climbing Boston Center
08:02AM 44.1083 -72.8681 318° Northwest 185 213 8,000 -600 Level Boston Center
08:03AM 44.1372 -72.9347 301° West 202 232 6,900 -1,080 Descending Boston Center
08:04AM 44.1661 -73.0103 298° West 214 246 5,900 -720 Descending Boston Center
08:05AM 44.1969 -73.0800 302° West 214 246 5,500 -840 Descending Boston Center
08:06AM 44.2236 -73.1469 299° West 208 239 4,300 -900 Descending Boston Center
08:07AM 44.2547 -73.2053 307° West 196 226 3,700 -720 Descending Boston Center
08:08AM 44.2961 -73.2292 338° Northwest 171 197 2,900 -900 Descending Boston Center
08:09AM 44.3358 -73.2092 20° North 153 176 1,900 -600 Descending Boston Center
08:10AM 44.3672 -73.1950 18° North 132 152 1,700 -120 Descending Boston Center
08:11AM 44.4028 -73.1811 16° North 126 145 1,700  Level Boston Center
08:13AM 44.4667 -73.1500 357° North  Level FlightAware Approximate